Etusivu
METAR-TAF:

METAR-TAF

Lentoasemat :

Stord, Norja

Leveyspiiri: 59-48N, Pituuspiiri: 005-21E, korkeus merenpinnasta: 49 m

Tämänhetkinen sää

Tämä raportti tehtiin 18 tuntia ja 16 minuuttia sitten, kello 15.50 UTC
Tuuli 5 kn lännestä
Lämpötila 19°C
Kosteus 68%
Ilmanpaine 1022 hPa
Näkyvyys 10 km tai enemmän
ei pilviä alle 1500 m:ssä eikä cumulonimbus-pilviä

METAR: ENSO 261550Z 26005KT CAVOK 19/13 Q1022

Aika: 12:06 (10:06 UTC)

Sääennuste

Tämä raportti tehtiin 20 tuntia ja 6 minuuttia sitten, kello 14.00 UTC
Ennuste voimassa 26. päivästä klo 15 UTC - 26. päivään klo 18 UTC
Tuuli 7 kn eri suunnista
Näkyvyys 10 km tai enemmän
Muutamia pilviä 4500 ft:n korkeudessa

TAF: ENSO 261400Z 2615/2618 VRB07KT 9999 FEW045

Säähavainnot ja -ennusteet yli 4000 lentoasemalta (METAR- ja TAF-raportit).

Käytössä olevat sääasemat on merkitty karttaan keltaisilla ja punaisilla pisteillä.

Aseta hiiri pisteen päälle nähdäksesi sääaseman nimen.

Klikkaa sitten nähdäksesi säähavainnot ja -ennusteet.

Kartan vaihtaminen: klikkaa mustalla rastilla varustettuja vihreitä pisteitä, niin voit zoomata sisään; viivalla varustettua vihreää pistettä, niin voit zoomata ulos tai vihreitä nuolia, niin pääset viereisille kartoille.


METAR-TAF: